Relevés horaires St-Hubert (Belgique)


Relevés horaires à St-Hubert - Mardi 10 Mai 2022
Heure UTC1 Température [°C] Vent [km/h] Hum. [%] Pres.4 [hPa] Visi. [Km] Nébu. [octa] Préc.5 [mm] Cond.
2m. Res. Ros. Dir.2 Vit. Moy. Raf.3
23:00 13.4 13.4 8.3 SO 3.7 7.4 11.1 71 1016.3(-0.6/3h) 45 0/8 -- --
22:00 15.6 15.6 7.8 S 7.4 7.4 11.1 60 1015.9(-0.5/3h) 45 0/8 -- --
21:00 16.1 16.1 8.5 S 7.4 7.4 13.0 61 1016(-0.5/3h) 45 0/8 -- --
20:00 15.9 15.9 8.9 S 5.6 7.4 11.1 63 1016.3(-0.4/3h) 45 0/8 -- --
19:00 17.5 17.5 8.9 SSO 5.6 7.4 13.0 57 1015.9(-0.8/3h) 40 0/8 -- --
18:00 18.3 18.3 9.3 SO 5.6 11.1 20.4 56 1016(-0.8/3h) 40 0/8 0/12h
--
17:00 19.1 19.1 8.7 SO 7.4 9.3 16.7 51 1016.1(-1.4/3h) 35 0/8 -- --
16:00 19.9 19.9 9.5 SO 9.3 11.1 16.7 51 1016.2(-1.6/3h) 35 6/8 -- --
15:00 19.7 19.7 9.1 SO 9.3 11.1 20.4 50 1016.6(-1.7/3h) 30 8/8 -- --
14:00 19.6 19.6 8.5 SO 9.3 9.3 16.7 49 1017.5(-1.3/3h) 22 7/8 -- --
13:00 20.6 20.6 9.7 OSO 9.3 11.1 20.4 50 1017.8(-1.0/3h) 35 3/8 -- --
12:00 19.2 19.2 7.9 SO 9.3 9.3 18.5 48 1018.6(-0.8/3h) 30 5/8 0/6h
--
11:00 19.5 19.5 7.9 SO 9.3 9.3 18.5 47 1019(-0.4/3h) 35 0/8 -- --
10:00 19.1 19.1 7.7 OSO 9.3 9.3 18.5 48 1019.2(-0.4/3h) 30 0/8 -- --
09:00 18.5 18.5 7.9 SO 5.6 7.4 13.0 50 1019.6(-0.4/3h) 30 0/8 -- --
08:00 18.1 18.1 9.7 SSO 5.6 7.4 11.1 58 1019.7(0.1/3h) 30 0/8 -- --
07:00 16.4 16.4 8.5 S 3.7 5.6 9.3 60 1020.3(0.1/3h) 30 0/8 -- --
06:00 14.3 14.3 7.4 S 5.6 5.6 9.3 63 1020.9(-0.3/3h) 40 0/8 0/12h
--
05:00 13.0 13.0 7.5 S 3.7 3.7 7.4 69 1021(-0.8/3h) 45 0/8 -- --
04:00 11.3 11.3 6.8 SSE 3.7 3.7 5.6 74 1021.6(-1.1/3h) 45 0/8 -- --
03:00 12.9 12.9 4.7 SSE 3.7 3.7 3.7 57 1021.6(-1.2/3h) 40 0/8 -- --
02:00 14.3 14.3 6.1 SSE 1.9 3.7 3.7 58 1021.6(-1.2/3h) 45 0/8 -- --
01:00 11.7 11.7 6.7 S 1.9 1.9 3.7 71 1022.6(-1.4/3h) 45 0/8 -- --
00:00 13.8 13.8 7.2 NNO 0.0 3.7 5.6 64 1022.6(-1.0/3h) 45 0/8 0/6h
0/24h
--

1 Coordinated Universal Time. Actuellement il est 15:00 locale et 14:00 UTC.

2 Le vent souffle depuis la direction indiquée vers la direction oposée.

3 Les rafales max. sont disponible 40 min après l'heure du relevé.

4 Pour les stations d'altitude (plus de 600m) le géopotentiel du niveau le plus proche de la pression obligatoire est indiqué.

5 Les stations disposant d'un diffuseur peuvent indiquer "trace". Cela signifie que des précipitations ont touchés le sol mais que la quantité est inférieure à 0.1 mm.

Récapitulatif de la journée
Température [°C] Vent [km/h] Ensoleillement4 [h] Precipitations totale5 [mm] Pression [Hpa]
Min1 Max.2 Moy.3 Max. Min Max.
11.1 20.9 7.3 20.4 0 h 0 min 0 1015.9 1022.6

1 Température minimale relevée entre 18:00 UTC la veille et 18:00 UTC le jour donné.

2 Température maximale relevée entre 06:00 UTC le jour donné et 06:00 UTC le lendemain.

3 Vent moyen de la journée basé sur les relevés horaires.

4 Ensoleillement en heures relevé entre 06:00 UTC la veille et 06:00 UTC le jour donné.

5 Précipitations totales tombées entre 06:00 UTC la jour donné et 06:00 UTC le lendemain.

Graphiques horaires